sensor_id;sensor_type;location;lat;lon;timestamp;pressure;altitude;pressure_sealevel;temperature;humidity
65013;BME280;51715;39.432;-77.518;2023-04-27T00:00:55;99825.89;;;19.60;29.27
65013;BME280;51715;39.432;-77.518;2023-04-27T00:03:24;99828.42;;;19.39;29.20
65013;BME280;51715;39.432;-77.518;2023-04-27T00:05:52;99831.91;;;19.51;29.01
65013;BME280;51715;39.432;-77.518;2023-04-27T00:08:21;99835.83;;;19.77;29.05
65013;BME280;51715;39.432;-77.518;2023-04-27T00:10:50;99839.52;;;19.29;28.99
65013;BME280;51715;39.432;-77.518;2023-04-27T00:13:19;99845.59;;;19.40;29.21
65013;BME280;51715;39.432;-77.518;2023-04-27T00:15:47;99854.17;;;19.13;29.64
65013;BME280;51715;39.432;-77.518;2023-04-27T00:18:16;99853.57;;;19.10;29.73
65013;BME280;51715;39.432;-77.518;2023-04-27T00:20:45;99858.43;;;18.49;30.90
65013;BME280;51715;39.432;-77.518;2023-04-27T00:23:14;99850.64;;;18.39;30.12
65013;BME280;51715;39.432;-77.518;2023-04-27T00:25:42;99856.22;;;18.79;30.34
65013;BME280;51715;39.432;-77.518;2023-04-27T00:28:11;99859.94;;;18.96;30.41
65013;BME280;51715;39.432;-77.518;2023-04-27T00:30:39;99860.17;;;18.70;30.84
65013;BME280;51715;39.432;-77.518;2023-04-27T00:33:08;99857.60;;;18.79;30.85
65013;BME280;51715;39.432;-77.518;2023-04-27T00:35:36;99855.38;;;18.39;30.81
65013;BME280;51715;39.432;-77.518;2023-04-27T00:38:04;99855.20;;;18.22;30.70
65013;BME280;51715;39.432;-77.518;2023-04-27T00:40:33;99861.59;;;18.29;30.97
65013;BME280;51715;39.432;-77.518;2023-04-27T00:43:02;99863.05;;;17.45;32.10
65013;BME280;51715;39.432;-77.518;2023-04-27T00:45:30;99866.94;;;17.61;32.06
65013;BME280;51715;39.432;-77.518;2023-04-27T00:47:59;99875.11;;;17.42;32.57
65013;BME280;51715;39.432;-77.518;2023-04-27T00:50:28;99877.65;;;17.73;31.99
65013;BME280;51715;39.432;-77.518;2023-04-27T00:52:58;99878.31;;;17.64;31.65
65013;BME280;51715;39.432;-77.518;2023-04-27T00:55:26;99883.20;;;17.55;32.83
65013;BME280;51715;39.432;-77.518;2023-04-27T00:57:55;99887.89;;;17.57;32.46
65013;BME280;51715;39.432;-77.518;2023-04-27T01:00:24;99893.92;;;17.36;32.55
65013;BME280;51715;39.432;-77.518;2023-04-27T01:02:54;99893.43;;;16.62;33.87
65013;BME280;51715;39.432;-77.518;2023-04-27T01:05:24;99900.25;;;16.39;34.20
65013;BME280;51715;39.432;-77.518;2023-04-27T01:07:52;99905.41;;;15.68;36.40
65013;BME280;51715;39.432;-77.518;2023-04-27T01:10:21;99904.58;;;16.17;36.09
65013;BME280;51715;39.432;-77.518;2023-04-27T01:12:50;99905.11;;;15.64;35.36
65013;BME280;51715;39.432;-77.518;2023-04-27T01:15:20;99902.83;;;16.23;35.29
65013;BME280;51715;39.432;-77.518;2023-04-27T01:17:55;99907.42;;;16.56;34.26
65013;BME280;51715;39.432;-77.518;2023-04-27T01:20:24;99914.40;;;16.63;34.17
65013;BME280;51715;39.432;-77.518;2023-04-27T01:22:54;99918.45;;;16.52;34.54
65013;BME280;51715;39.432;-77.518;2023-04-27T01:25:22;99917.25;;;16.18;35.22
65013;BME280;51715;39.432;-77.518;2023-04-27T01:27:52;99919.35;;;16.62;35.10
65013;BME280;51715;39.432;-77.518;2023-04-27T01:30:21;99921.94;;;16.08;34.28
65013;BME280;51715;39.432;-77.518;2023-04-27T01:32:57;99923.66;;;17.39;33.12
65013;BME280;51715;39.432;-77.518;2023-04-27T01:35:27;99921.83;;;16.76;33.11
65013;BME280;51715;39.432;-77.518;2023-04-27T01:37:56;99922.64;;;17.48;33.43
65013;BME280;51715;39.432;-77.518;2023-04-27T01:40:24;99921.01;;;17.41;32.64
65013;BME280;51715;39.432;-77.518;2023-04-27T01:42:53;99925.29;;;17.62;32.93
65013;BME280;51715;39.432;-77.518;2023-04-27T01:45:21;99931.56;;;17.16;34.24
65013;BME280;51715;39.432;-77.518;2023-04-27T01:47:51;99939.50;;;16.60;34.96
65013;BME280;51715;39.432;-77.518;2023-04-27T01:50:19;99939.27;;;16.72;34.32
65013;BME280;51715;39.432;-77.518;2023-04-27T01:52:48;99936.17;;;17.32;33.20
65013;BME280;51715;39.432;-77.518;2023-04-27T01:55:17;99938.07;;;17.51;33.96
65013;BME280;51715;39.432;-77.518;2023-04-27T01:57:45;99934.08;;;17.61;33.32
65013;BME280;51715;39.432;-77.518;2023-04-27T02:00:15;99934.48;;;17.57;33.53
65013;BME280;51715;39.432;-77.518;2023-04-27T02:02:44;99934.39;;;17.48;32.95
65013;BME280;51715;39.432;-77.518;2023-04-27T02:05:13;99935.47;;;17.68;32.66
65013;BME280;51715;39.432;-77.518;2023-04-27T02:07:42;99942.49;;;17.61;33.61
65013;BME280;51715;39.432;-77.518;2023-04-27T02:10:10;99939.53;;;17.92;32.94
65013;BME280;51715;39.432;-77.518;2023-04-27T02:12:39;99946.38;;;17.35;34.29
65013;BME280;51715;39.432;-77.518;2023-04-27T02:15:08;99943.11;;;16.91;34.78
65013;BME280;51715;39.432;-77.518;2023-04-27T02:17:38;99946.61;;;16.92;35.12
65013;BME280;51715;39.432;-77.518;2023-04-27T02:20:08;99939.61;;;17.16;34.85
65013;BME280;51715;39.432;-77.518;2023-04-27T02:22:39;99932.10;;;16.85;35.07
65013;BME280;51715;39.432;-77.518;2023-04-27T02:25:08;99926.49;;;16.36;35.53
65013;BME280;51715;39.432;-77.518;2023-04-27T02:27:37;99917.12;;;16.83;35.54
65013;BME280;51715;39.432;-77.518;2023-04-27T02:30:07;99914.20;;;17.11;35.71
65013;BME280;51715;39.432;-77.518;2023-04-27T02:32:36;99910.17;;;16.92;36.20
65013;BME280;51715;39.432;-77.518;2023-04-27T02:35:05;99903.22;;;16.95;36.60
65013;BME280;51715;39.432;-77.518;2023-04-27T02:37:35;99897.53;;;16.54;36.38
65013;BME280;51715;39.432;-77.518;2023-04-27T02:40:04;99896.77;;;16.79;36.40
65013;BME280;51715;39.432;-77.518;2023-04-27T02:42:32;99902.40;;;17.11;35.87
65013;BME280;51715;39.432;-77.518;2023-04-27T02:45:01;99900.64;;;17.38;36.05
65013;BME280;51715;39.432;-77.518;2023-04-27T02:47:30;99902.27;;;16.63;36.66
65013;BME280;51715;39.432;-77.518;2023-04-27T02:49:58;99904.41;;;16.72;37.24
65013;BME280;51715;39.432;-77.518;2023-04-27T02:52:27;99901.37;;;17.07;36.48
65013;BME280;51715;39.432;-77.518;2023-04-27T02:54:55;99908.53;;;17.49;36.34
65013;BME280;51715;39.432;-77.518;2023-04-27T02:57:24;99911.00;;;17.27;35.73
65013;BME280;51715;39.432;-77.518;2023-04-27T02:59:52;99910.02;;;17.47;36.20
65013;BME280;51715;39.432;-77.518;2023-04-27T03:02:20;99916.14;;;17.65;35.76
65013;BME280;51715;39.432;-77.518;2023-04-27T03:04:52;99914.04;;;17.49;35.45
65013;BME280;51715;39.432;-77.518;2023-04-27T03:07:21;99915.79;;;17.14;36.01
65013;BME280;51715;39.432;-77.518;2023-04-27T03:09:50;99911.71;;;17.49;36.35
65013;BME280;51715;39.432;-77.518;2023-04-27T03:12:19;99916.60;;;17.07;36.62
65013;BME280;51715;39.432;-77.518;2023-04-27T03:14:48;99923.47;;;17.39;35.97
65013;BME280;51715;39.432;-77.518;2023-04-27T03:17:16;99924.25;;;17.19;36.11
65013;BME280;51715;39.432;-77.518;2023-04-27T03:19:47;99930.57;;;17.23;37.08
65013;BME280;51715;39.432;-77.518;2023-04-27T03:22:15;99930.08;;;17.05;36.79
65013;BME280;51715;39.432;-77.518;2023-04-27T03:24:44;99925.59;;;17.55;36.43
65013;BME280;51715;39.432;-77.518;2023-04-27T03:27:11;99930.37;;;17.48;36.45
65013;BME280;51715;39.432;-77.518;2023-04-27T03:29:39;99936.08;;;16.88;37.49
65013;BME280;51715;39.432;-77.518;2023-04-27T03:32:09;99933.27;;;17.07;37.24
65013;BME280;51715;39.432;-77.518;2023-04-27T03:34:37;99935.63;;;17.00;36.94
65013;BME280;51715;39.432;-77.518;2023-04-27T03:37:05;99934.02;;;16.94;37.22
65013;BME280;51715;39.432;-77.518;2023-04-27T03:39:34;99932.75;;;16.96;37.81
65013;BME280;51715;39.432;-77.518;2023-04-27T03:42:02;99933.86;;;17.03;37.30
65013;BME280;51715;39.432;-77.518;2023-04-27T03:44:31;99932.16;;;16.84;37.56
65013;BME280;51715;39.432;-77.518;2023-04-27T03:47:00;99934.83;;;16.51;38.11
65013;BME280;51715;39.432;-77.518;2023-04-27T03:49:28;99935.71;;;16.45;38.32
65013;BME280;51715;39.432;-77.518;2023-04-27T03:51:57;99936.13;;;16.30;38.83
65013;BME280;51715;39.432;-77.518;2023-04-27T03:54:26;99926.38;;;16.32;38.33
65013;BME280;51715;39.432;-77.518;2023-04-27T03:56:55;99923.11;;;16.38;38.50
65013;BME280;51715;39.432;-77.518;2023-04-27T03:59:24;99920.96;;;16.58;38.02
65013;BME280;51715;39.432;-77.518;2023-04-27T04:04:07;99925.57;;;16.72;36.88
65013;BME280;51715;39.432;-77.518;2023-04-27T04:06:35;99921.61;;;16.55;36.79
65013;BME280;51715;39.432;-77.518;2023-04-27T04:09:03;99921.69;;;16.84;36.67
65013;BME280;51715;39.432;-77.518;2023-04-27T04:11:31;99927.19;;;16.47;37.15
65013;BME280;51715;39.432;-77.518;2023-04-27T04:13:59;99935.87;;;16.95;37.11
65013;BME280;51715;39.432;-77.518;2023-04-27T04:16:27;99933.18;;;16.61;37.64
65013;BME280;51715;39.432;-77.518;2023-04-27T04:18:56;99935.86;;;16.01;38.72
65013;BME280;51715;39.432;-77.518;2023-04-27T04:21:25;99929.93;;;16.21;39.00
65013;BME280;51715;39.432;-77.518;2023-04-27T04:23:53;99928.50;;;16.29;38.73
65013;BME280;51715;39.432;-77.518;2023-04-27T04:26:21;99933.43;;;16.01;39.15
65013;BME280;51715;39.432;-77.518;2023-04-27T04:28:49;99946.51;;;15.61;40.13
65013;BME280;51715;39.432;-77.518;2023-04-27T04:31:18;99948.11;;;15.29;40.68
65013;BME280;51715;39.432;-77.518;2023-04-27T04:33:46;99948.83;;;15.55;40.17
65013;BME280;51715;39.432;-77.518;2023-04-27T04:36:15;99953.69;;;15.81;39.71
65013;BME280;51715;39.432;-77.518;2023-04-27T04:38:43;99953.30;;;15.64;39.96
65013;BME280;51715;39.432;-77.518;2023-04-27T04:41:12;99955.31;;;15.52;40.27
65013;BME280;51715;39.432;-77.518;2023-04-27T04:43:40;99954.07;;;15.84;39.43
65013;BME280;51715;39.432;-77.518;2023-04-27T04:46:08;99952.11;;;15.51;40.58
65013;BME280;51715;39.432;-77.518;2023-04-27T04:48:36;99955.33;;;14.52;42.69
65013;BME280;51715;39.432;-77.518;2023-04-27T04:51:05;99955.87;;;15.24;41.54
65013;BME280;51715;39.432;-77.518;2023-04-27T04:53:34;99953.13;;;15.58;40.69
65013;BME280;51715;39.432;-77.518;2023-04-27T04:56:08;99951.88;;;15.12;41.11
65013;BME280;51715;39.432;-77.518;2023-04-27T04:58:36;99949.48;;;15.08;41.46
65013;BME280;51715;39.432;-77.518;2023-04-27T05:01:05;99956.38;;;14.74;42.09
65013;BME280;51715;39.432;-77.518;2023-04-27T05:03:33;99949.94;;;14.82;41.35
65013;BME280;51715;39.432;-77.518;2023-04-27T05:06:01;99948.04;;;15.44;40.54
65013;BME280;51715;39.432;-77.518;2023-04-27T05:08:30;99949.05;;;15.36;39.85
65013;BME280;51715;39.432;-77.518;2023-04-27T05:10:58;99952.63;;;15.26;40.96
65013;BME280;51715;39.432;-77.518;2023-04-27T05:13:27;99951.13;;;15.47;40.27
65013;BME280;51715;39.432;-77.518;2023-04-27T05:15:55;99953.56;;;14.94;41.77
65013;BME280;51715;39.432;-77.518;2023-04-27T05:18:23;99949.95;;;14.82;41.27
65013;BME280;51715;39.432;-77.518;2023-04-27T05:20:51;99941.12;;;15.13;40.93
65013;BME280;51715;39.432;-77.518;2023-04-27T05:23:19;99944.80;;;14.53;42.40
65013;BME280;51715;39.432;-77.518;2023-04-27T05:25:47;99945.18;;;14.37;42.76
65013;BME280;51715;39.432;-77.518;2023-04-27T05:28:20;99946.41;;;14.40;42.44
65013;BME280;51715;39.432;-77.518;2023-04-27T05:30:48;99943.77;;;14.64;42.48
65013;BME280;51715;39.432;-77.518;2023-04-27T05:33:16;99940.06;;;14.76;42.50
65013;BME280;51715;39.432;-77.518;2023-04-27T05:35:45;99937.82;;;14.71;42.82
65013;BME280;51715;39.432;-77.518;2023-04-27T05:38:14;99937.77;;;14.27;42.93
65013;BME280;51715;39.432;-77.518;2023-04-27T05:40:43;99939.73;;;14.43;43.11
65013;BME280;51715;39.432;-77.518;2023-04-27T05:43:10;99934.69;;;14.60;42.37
65013;BME280;51715;39.432;-77.518;2023-04-27T05:45:39;99934.51;;;14.55;42.48
65013;BME280;51715;39.432;-77.518;2023-04-27T05:48:07;99941.85;;;14.25;43.57
65013;BME280;51715;39.432;-77.518;2023-04-27T05:50:35;99940.74;;;13.98;43.47
65013;BME280;51715;39.432;-77.518;2023-04-27T05:53:04;99940.33;;;14.10;43.27
65013;BME280;51715;39.432;-77.518;2023-04-27T05:55:33;99943.75;;;13.79;43.90
65013;BME280;51715;39.432;-77.518;2023-04-27T05:58:03;99933.59;;;14.34;42.84
65013;BME280;51715;39.432;-77.518;2023-04-27T06:00:32;99926.36;;;13.98;42.96
65013;BME280;51715;39.432;-77.518;2023-04-27T06:03:00;99925.49;;;14.75;42.13
65013;BME280;51715;39.432;-77.518;2023-04-27T06:05:28;99919.72;;;14.53;41.55
65013;BME280;51715;39.432;-77.518;2023-04-27T06:07:56;99912.75;;;14.67;41.78
65013;BME280;51715;39.432;-77.518;2023-04-27T06:10:25;99912.68;;;14.26;42.85
65013;BME280;51715;39.432;-77.518;2023-04-27T06:12:53;99910.59;;;14.37;41.60
65013;BME280;51715;39.432;-77.518;2023-04-27T06:15:21;99918.08;;;14.62;41.89
65013;BME280;51715;39.432;-77.518;2023-04-27T06:17:49;99912.04;;;14.34;41.77
65013;BME280;51715;39.432;-77.518;2023-04-27T06:20:17;99908.47;;;14.64;41.93
65013;BME280;51715;39.432;-77.518;2023-04-27T06:22:46;99904.28;;;14.57;41.18
65013;BME280;51715;39.432;-77.518;2023-04-27T06:25:14;99896.72;;;14.75;40.92
65013;BME280;51715;39.432;-77.518;2023-04-27T06:27:42;99897.37;;;14.74;41.21
65013;BME280;51715;39.432;-77.518;2023-04-27T06:30:12;99903.47;;;14.26;41.75
65013;BME280;51715;39.432;-77.518;2023-04-27T06:32:41;99900.63;;;14.10;42.68
65013;BME280;51715;39.432;-77.518;2023-04-27T06:35:10;99908.75;;;14.00;43.84
65013;BME280;51715;39.432;-77.518;2023-04-27T06:37:38;99903.69;;;13.71;43.41
65013;BME280;51715;39.432;-77.518;2023-04-27T06:40:07;99902.17;;;14.34;42.36
65013;BME280;51715;39.432;-77.518;2023-04-27T06:42:35;99900.40;;;14.28;42.54
65013;BME280;51715;39.432;-77.518;2023-04-27T06:45:04;99903.12;;;14.21;42.57
65013;BME280;51715;39.432;-77.518;2023-04-27T06:47:33;99899.05;;;13.90;43.53
65013;BME280;51715;39.432;-77.518;2023-04-27T06:50:01;99899.85;;;13.62;44.05
65013;BME280;51715;39.432;-77.518;2023-04-27T06:52:31;99895.38;;;12.37;46.71
65013;BME280;51715;39.432;-77.518;2023-04-27T06:55:00;99889.06;;;13.14;44.92
65013;BME280;51715;39.432;-77.518;2023-04-27T06:57:27;99880.62;;;13.92;43.61
65013;BME280;51715;39.432;-77.518;2023-04-27T06:59:55;99883.66;;;14.09;43.14
65013;BME280;51715;39.432;-77.518;2023-04-27T07:02:25;99884.38;;;14.02;42.93
65013;BME280;51715;39.432;-77.518;2023-04-27T07:04:54;99877.23;;;14.20;42.77
65013;BME280;51715;39.432;-77.518;2023-04-27T07:07:23;99887.89;;;13.72;44.06
65013;BME280;51715;39.432;-77.518;2023-04-27T07:09:51;99887.54;;;12.85;45.80
65013;BME280;51715;39.432;-77.518;2023-04-27T07:12:19;99887.75;;;13.38;44.26
65013;BME280;51715;39.432;-77.518;2023-04-27T07:14:47;99884.02;;;13.81;43.57
65013;BME280;51715;39.432;-77.518;2023-04-27T07:17:15;99885.53;;;13.38;44.49
65013;BME280;51715;39.432;-77.518;2023-04-27T07:19:44;99887.55;;;13.46;44.82
65013;BME280;51715;39.432;-77.518;2023-04-27T07:22:14;99886.78;;;13.70;43.55
65013;BME280;51715;39.432;-77.518;2023-04-27T07:24:48;99882.95;;;14.33;42.06
65013;BME280;51715;39.432;-77.518;2023-04-27T07:27:16;99882.07;;;13.87;43.03
65013;BME280;51715;39.432;-77.518;2023-04-27T07:29:44;99878.68;;;14.52;41.65
65013;BME280;51715;39.432;-77.518;2023-04-27T07:32:12;99877.74;;;14.78;41.12
65013;BME280;51715;39.432;-77.518;2023-04-27T07:34:40;99876.68;;;14.61;41.56
65013;BME280;51715;39.432;-77.518;2023-04-27T07:37:09;99876.01;;;14.48;41.87
65013;BME280;51715;39.432;-77.518;2023-04-27T07:39:39;99879.71;;;13.76;42.71
65013;BME280;51715;39.432;-77.518;2023-04-27T07:42:06;99879.66;;;14.12;42.62
65013;BME280;51715;39.432;-77.518;2023-04-27T07:44:35;99879.09;;;13.14;44.61
65013;BME280;51715;39.432;-77.518;2023-04-27T07:47:03;99884.12;;;13.39;44.57
65013;BME280;51715;39.432;-77.518;2023-04-27T07:49:31;99882.24;;;14.03;43.29
65013;BME280;51715;39.432;-77.518;2023-04-27T07:52:00;99887.65;;;14.01;42.42
65013;BME280;51715;39.432;-77.518;2023-04-27T07:54:29;99886.21;;;14.12;42.23
65013;BME280;51715;39.432;-77.518;2023-04-27T07:56:57;99880.99;;;14.19;42.28
65013;BME280;51715;39.432;-77.518;2023-04-27T07:59:28;99886.44;;;14.48;41.42
65013;BME280;51715;39.432;-77.518;2023-04-27T08:01:56;99881.50;;;14.44;41.59
65013;BME280;51715;39.432;-77.518;2023-04-27T08:04:24;99878.39;;;14.82;41.27
65013;BME280;51715;39.432;-77.518;2023-04-27T08:06:52;99875.95;;;14.81;40.79
65013;BME280;51715;39.432;-77.518;2023-04-27T08:09:20;99878.75;;;14.45;41.44
65013;BME280;51715;39.432;-77.518;2023-04-27T08:11:49;99869.66;;;14.54;41.50
65013;BME280;51715;39.432;-77.518;2023-04-27T08:14:18;99869.38;;;14.33;41.86
65013;BME280;51715;39.432;-77.518;2023-04-27T08:16:46;99879.87;;;14.15;42.86
65013;BME280;51715;39.432;-77.518;2023-04-27T08:19:15;99891.49;;;13.94;42.50
65013;BME280;51715;39.432;-77.518;2023-04-27T08:21:44;99897.21;;;14.26;41.87
65013;BME280;51715;39.432;-77.518;2023-04-27T08:24:12;99895.61;;;14.44;41.51
65013;BME280;51715;39.432;-77.518;2023-04-27T08:26:41;99891.91;;;14.53;41.11
65013;BME280;51715;39.432;-77.518;2023-04-27T08:29:09;99887.43;;;14.33;41.48
65013;BME280;51715;39.432;-77.518;2023-04-27T08:31:37;99887.40;;;14.16;42.00
65013;BME280;51715;39.432;-77.518;2023-04-27T08:34:05;99888.89;;;14.23;42.63
65013;BME280;51715;39.432;-77.518;2023-04-27T08:36:33;99891.05;;;14.06;41.51
65013;BME280;51715;39.432;-77.518;2023-04-27T08:39:01;99894.49;;;14.25;41.17
65013;BME280;51715;39.432;-77.518;2023-04-27T08:41:31;99892.01;;;14.23;41.67
65013;BME280;51715;39.432;-77.518;2023-04-27T08:43:59;99892.92;;;14.30;41.67
65013;BME280;51715;39.432;-77.518;2023-04-27T08:46:28;99896.63;;;14.27;41.55
65013;BME280;51715;39.432;-77.518;2023-04-27T08:48:56;99901.60;;;13.62;43.01
65013;BME280;51715;39.432;-77.518;2023-04-27T08:51:24;99898.53;;;13.93;42.42
65013;BME280;51715;39.432;-77.518;2023-04-27T08:53:54;99904.13;;;14.18;42.06
65013;BME280;51715;39.432;-77.518;2023-04-27T08:56:23;99896.50;;;14.14;41.41
65013;BME280;51715;39.432;-77.518;2023-04-27T08:58:53;99895.91;;;13.96;41.17
65013;BME280;51715;39.432;-77.518;2023-04-27T09:01:22;99899.02;;;13.69;42.39
65013;BME280;51715;39.432;-77.518;2023-04-27T09:03:55;99899.84;;;13.98;41.56
65013;BME280;51715;39.432;-77.518;2023-04-27T09:06:29;99909.47;;;13.76;43.15
65013;BME280;51715;39.432;-77.518;2023-04-27T09:09:00;99911.86;;;13.58;42.42
65013;BME280;51715;39.432;-77.518;2023-04-27T09:11:30;99914.37;;;14.00;41.64
65013;BME280;51715;39.432;-77.518;2023-04-27T09:14:00;99921.50;;;13.79;41.49
65013;BME280;51715;39.432;-77.518;2023-04-27T09:16:30;99924.63;;;14.09;41.32
65013;BME280;51715;39.432;-77.518;2023-04-27T09:18:58;99929.45;;;13.89;40.99
65013;BME280;51715;39.432;-77.518;2023-04-27T09:21:28;99937.91;;;14.28;41.09
65013;BME280;51715;39.432;-77.518;2023-04-27T09:23:57;99945.32;;;13.89;41.36
65013;BME280;51715;39.432;-77.518;2023-04-27T09:26:27;99949.96;;;13.97;41.18
65013;BME280;51715;39.432;-77.518;2023-04-27T09:28:55;99953.97;;;13.73;41.60
65013;BME280;51715;39.432;-77.518;2023-04-27T09:31:30;99956.33;;;14.03;41.60
65013;BME280;51715;39.432;-77.518;2023-04-27T09:33:59;99955.77;;;13.81;41.41
65013;BME280;51715;39.432;-77.518;2023-04-27T09:36:27;99958.73;;;13.83;41.18
65013;BME280;51715;39.432;-77.518;2023-04-27T09:38:57;99962.07;;;13.69;41.52
65013;BME280;51715;39.432;-77.518;2023-04-27T09:41:26;99963.75;;;13.54;41.73
65013;BME280;51715;39.432;-77.518;2023-04-27T09:43:55;99967.39;;;13.77;42.38
65013;BME280;51715;39.432;-77.518;2023-04-27T09:46:24;99966.39;;;13.31;43.19
65013;BME280;51715;39.432;-77.518;2023-04-27T09:48:52;99965.99;;;13.62;42.27
65013;BME280;51715;39.432;-77.518;2023-04-27T09:51:21;99966.75;;;13.02;43.49
65013;BME280;51715;39.432;-77.518;2023-04-27T09:53:51;99974.09;;;13.08;43.84
65013;BME280;51715;39.432;-77.518;2023-04-27T09:56:30;99980.02;;;13.37;43.58
65013;BME280;51715;39.432;-77.518;2023-04-27T09:59:16;99977.19;;;13.61;42.85
65013;BME280;51715;39.432;-77.518;2023-04-27T10:01:53;99982.41;;;13.43;42.05
65013;BME280;51715;39.432;-77.518;2023-04-27T10:04:39;99980.05;;;13.53;41.96
65013;BME280;51715;39.432;-77.518;2023-04-27T10:07:12;99987.45;;;13.60;41.68
65013;BME280;51715;39.432;-77.518;2023-04-27T10:09:44;99986.89;;;13.60;41.69
65013;BME280;51715;39.432;-77.518;2023-04-27T10:12:16;99990.78;;;13.44;42.44
65013;BME280;51715;39.432;-77.518;2023-04-27T10:14:54;100000.20;;;13.51;42.12
65013;BME280;51715;39.432;-77.518;2023-04-27T10:17:29;100003.26;;;12.93;43.43
65013;BME280;51715;39.432;-77.518;2023-04-27T10:19:59;100008.50;;;13.39;42.96
65013;BME280;51715;39.432;-77.518;2023-04-27T10:22:45;100008.98;;;13.56;42.55
65013;BME280;51715;39.432;-77.518;2023-04-27T10:25:16;100007.59;;;13.42;42.51
65013;BME280;51715;39.432;-77.518;2023-04-27T10:27:49;100010.20;;;13.58;42.06
65013;BME280;51715;39.432;-77.518;2023-04-27T10:30:21;100014.92;;;13.58;42.92
65013;BME280;51715;39.432;-77.518;2023-04-27T10:32:53;100012.47;;;13.40;43.46
65013;BME280;51715;39.432;-77.518;2023-04-27T10:35:31;100018.16;;;13.42;43.33
65013;BME280;51715;39.432;-77.518;2023-04-27T10:38:10;100023.83;;;13.64;42.68
65013;BME280;51715;39.432;-77.518;2023-04-27T10:40:44;100025.88;;;13.24;42.88
65013;BME280;51715;39.432;-77.518;2023-04-27T10:43:15;100027.64;;;13.79;42.50
65013;BME280;51715;39.432;-77.518;2023-04-27T10:45:45;100031.84;;;13.68;42.08
65013;BME280;51715;39.432;-77.518;2023-04-27T10:48:14;100031.55;;;13.74;42.05
65013;BME280;51715;39.432;-77.518;2023-04-27T10:50:43;100027.39;;;13.68;42.40
65013;BME280;51715;39.432;-77.518;2023-04-27T10:53:11;100027.07;;;13.46;42.43
65013;BME280;51715;39.432;-77.518;2023-04-27T10:55:41;100025.33;;;13.49;42.95
65013;BME280;51715;39.432;-77.518;2023-04-27T10:58:09;100026.27;;;13.70;43.10
65013;BME280;51715;39.432;-77.518;2023-04-27T11:00:40;100028.20;;;13.80;43.03
65013;BME280;51715;39.432;-77.518;2023-04-27T11:03:13;100028.99;;;13.62;43.27
65013;BME280;51715;39.432;-77.518;2023-04-27T11:05:43;100033.73;;;13.88;43.07
65013;BME280;51715;39.432;-77.518;2023-04-27T11:08:12;100029.91;;;12.81;45.24
65013;BME280;51715;39.432;-77.518;2023-04-27T11:10:44;100028.18;;;13.41;44.38
65013;BME280;51715;39.432;-77.518;2023-04-27T11:13:15;100031.77;;;13.12;44.70
65013;BME280;51715;39.432;-77.518;2023-04-27T11:15:46;100030.83;;;13.16;44.28
65013;BME280;51715;39.432;-77.518;2023-04-27T11:18:16;100035.65;;;13.62;43.82
65013;BME280;51715;39.432;-77.518;2023-04-27T11:20:47;100037.43;;;13.49;44.00
65013;BME280;51715;39.432;-77.518;2023-04-27T11:23:24;100041.19;;;13.79;43.21
65013;BME280;51715;39.432;-77.518;2023-04-27T11:25:54;100050.23;;;13.26;44.51
65013;BME280;51715;39.432;-77.518;2023-04-27T11:28:23;100054.90;;;12.81;45.78
65013;BME280;51715;39.432;-77.518;2023-04-27T11:30:59;100054.59;;;13.45;44.06
65013;BME280;51715;39.432;-77.518;2023-04-27T11:33:28;100051.83;;;12.86;46.36
65013;BME280;51715;39.432;-77.518;2023-04-27T11:35:58;100048.71;;;12.92;45.42
65013;BME280;51715;39.432;-77.518;2023-04-27T11:38:32;100050.55;;;13.42;44.59
65013;BME280;51715;39.432;-77.518;2023-04-27T11:41:04;100050.50;;;13.63;43.92
65013;BME280;51715;39.432;-77.518;2023-04-27T11:43:33;100052.23;;;13.91;43.55
65013;BME280;51715;39.432;-77.518;2023-04-27T11:46:03;100053.87;;;13.79;43.89
65013;BME280;51715;39.432;-77.518;2023-04-27T11:48:31;100049.62;;;14.15;43.32
65013;BME280;51715;39.432;-77.518;2023-04-27T11:51:00;100049.80;;;14.58;42.27
65013;BME280;51715;39.432;-77.518;2023-04-27T11:53:31;100051.92;;;14.42;42.19
65013;BME280;51715;39.432;-77.518;2023-04-27T11:56:00;100059.05;;;13.81;43.34
65013;BME280;51715;39.432;-77.518;2023-04-27T11:58:28;100065.47;;;13.73;44.20
65013;BME280;51715;39.432;-77.518;2023-04-27T12:00:57;100080.16;;;13.44;45.34
65013;BME280;51715;39.432;-77.518;2023-04-27T12:03:28;100077.58;;;13.88;44.19
65013;BME280;51715;39.432;-77.518;2023-04-27T12:05:59;100080.84;;;13.88;43.73
65013;BME280;51715;39.432;-77.518;2023-04-27T12:08:26;100083.26;;;12.55;46.59
65013;BME280;51715;39.432;-77.518;2023-04-27T12:10:55;100086.73;;;12.35;48.03
65013;BME280;51715;39.432;-77.518;2023-04-27T12:13:23;100093.35;;;12.94;46.76
65013;BME280;51715;39.432;-77.518;2023-04-27T12:15:52;100099.02;;;13.71;45.26
65013;BME280;51715;39.432;-77.518;2023-04-27T12:18:20;100105.85;;;13.30;45.71
65013;BME280;51715;39.432;-77.518;2023-04-27T12:20:49;100104.32;;;13.97;43.98
65013;BME280;51715;39.432;-77.518;2023-04-27T12:23:18;100109.29;;;13.15;45.97
65013;BME280;51715;39.432;-77.518;2023-04-27T12:25:46;100112.15;;;13.55;45.35
65013;BME280;51715;39.432;-77.518;2023-04-27T12:28:15;100111.44;;;13.28;46.85
65013;BME280;51715;39.432;-77.518;2023-04-27T12:30:44;100104.89;;;14.10;45.33
65013;BME280;51715;39.432;-77.518;2023-04-27T12:33:12;100107.70;;;14.53;44.07
65013;BME280;51715;39.432;-77.518;2023-04-27T12:35:40;100103.51;;;12.68;47.55
65013;BME280;51715;39.432;-77.518;2023-04-27T12:38:08;100102.69;;;12.57;49.59
65013;BME280;51715;39.432;-77.518;2023-04-27T12:40:37;100103.31;;;13.39;47.07
65013;BME280;51715;39.432;-77.518;2023-04-27T12:43:06;100100.99;;;13.18;46.93
65013;BME280;51715;39.432;-77.518;2023-04-27T12:45:35;100106.35;;;13.78;46.83
65013;BME280;51715;39.432;-77.518;2023-04-27T12:48:03;100107.03;;;13.62;46.81
65013;BME280;51715;39.432;-77.518;2023-04-27T12:50:32;100107.72;;;12.32;50.72